Antonino, Kansas
Current Conditions -  °F | °C
As of 9:55 AM on Saturday 25 Oct 2014 (Local Time) from KHYS Reporting Station
Clear Clear  
Wind Chill: 13°   Ceiling: Unl
Heat Index: 13°   Visibility: 10mi
Dew Point:   Wind: 3mph
Humidity: 72%   Direction: 240°WSW
Pressure: 30.09"   Gusts: NA
Location:  38.8338°N, 99.3297°W
Report Text: KHYS 251455Z AUTO 24003KT 10SM CLR 13/08 A3009 RMK AO1 52014
Loading
Personal Weather Stations






























Interactive Weather Map
Tropical Storm Tracking
New forecast layout! Learn more

10-Day Weather Forecast

Advertisements
Track Severe Weather on mobile